createdAt,value
2022-11-12T00:00:45.471Z,7.37
2022-11-12T00:01:45.509Z,7.37
2022-11-12T00:02:45.443Z,7.39
2022-11-12T00:03:45.463Z,7.37
2022-11-12T00:04:45.440Z,7.39
2022-11-12T00:05:45.389Z,7.41
2022-11-12T00:06:45.452Z,7.36
2022-11-12T00:07:45.403Z,7.37
2022-11-12T00:08:45.361Z,7.36
2022-11-12T00:09:45.363Z,7.36
2022-11-12T00:10:45.365Z,7.37
2022-11-12T00:11:45.364Z,7.41
2022-11-12T00:12:45.355Z,7.42
2022-11-12T00:13:45.345Z,7.42
2022-11-12T00:14:45.314Z,7.42
2022-11-12T00:15:45.316Z,7.42
2022-11-12T00:16:45.325Z,7.41
2022-11-12T00:17:45.295Z,7.37
2022-11-12T00:18:45.276Z,7.37
2022-11-12T00:19:45.263Z,7.36
2022-11-12T00:20:45.267Z,7.36
2022-11-12T00:21:45.256Z,7.36
2022-11-12T00:22:45.234Z,7.33
2022-11-12T00:23:45.226Z,7.34
2022-11-12T00:24:45.234Z,7.36
2022-11-12T00:25:45.223Z,7.34
2022-11-12T00:26:45.186Z,7.33
2022-11-12T00:27:45.186Z,7.32
2022-11-12T00:28:45.166Z,7.30
2022-11-12T00:29:45.143Z,7.32
2022-11-12T00:30:45.162Z,7.29
2022-11-12T00:31:45.143Z,7.30
2022-11-12T00:32:45.126Z,7.29
2022-11-12T00:33:45.127Z,7.26
2022-11-12T00:34:45.093Z,7.23
2022-11-12T00:35:45.118Z,7.27
2022-11-12T00:36:45.078Z,7.23
2022-11-12T00:37:45.097Z,7.23
2022-11-12T00:38:45.055Z,7.24
2022-11-12T00:39:45.058Z,7.24
2022-11-12T00:40:45.030Z,7.21
2022-11-12T00:41:45.027Z,7.21
2022-11-12T00:42:45.028Z,7.21
2022-11-12T00:43:45.020Z,7.19
2022-11-12T00:44:45.021Z,7.19
2022-11-12T00:45:44.984Z,7.18
2022-11-12T00:46:44.978Z,7.18
2022-11-12T00:47:44.964Z,7.16
2022-11-12T00:48:44.968Z,7.16
2022-11-12T00:49:44.957Z,7.18
2022-11-12T00:50:44.955Z,7.16
2022-11-12T00:51:44.937Z,7.15
2022-11-12T00:52:44.928Z,7.16
2022-11-12T00:53:44.907Z,7.15
2022-11-12T00:54:44.910Z,7.16
2022-11-12T00:55:44.882Z,7.12
2022-11-12T00:56:44.859Z,7.12
2022-11-12T00:57:44.876Z,7.12
2022-11-12T00:58:44.849Z,7.08
2022-11-12T00:59:44.830Z,7.09
2022-11-12T01:00:44.881Z,7.08
2022-11-12T01:01:44.810Z,7.07
2022-11-12T01:02:50.404Z,7.07
2022-11-12T01:03:45.861Z,7.01
2022-11-12T01:04:44.800Z,7.01
2022-11-12T01:05:44.770Z,7.00
2022-11-12T01:06:44.831Z,7.01
2022-11-12T01:07:44.771Z,6.99
2022-11-12T01:08:44.741Z,6.97
2022-11-12T01:09:44.751Z,7.00
2022-11-12T01:10:44.740Z,7.00
2022-11-12T01:11:44.711Z,6.99
2022-11-12T01:12:44.721Z,6.99
2022-11-12T01:13:44.687Z,6.99
2022-11-12T01:14:44.671Z,6.97
2022-11-12T01:15:44.659Z,6.96
2022-11-12T01:16:44.651Z,6.94
2022-11-12T01:17:44.651Z,6.93
2022-11-12T01:18:44.652Z,6.91
2022-11-12T01:19:44.643Z,6.91
2022-11-12T01:20:44.610Z,6.91
2022-11-12T01:21:44.623Z,6.90
2022-11-12T01:22:44.591Z,6.90
2022-11-12T01:23:44.594Z,6.89
2022-11-12T01:24:44.569Z,6.90
2022-11-12T01:25:44.573Z,6.89
2022-11-12T01:26:44.552Z,6.89
2022-11-12T01:27:44.568Z,6.91
2022-11-12T01:28:44.536Z,6.90
2022-11-12T01:29:44.540Z,6.90
2022-11-12T01:30:44.511Z,6.89
2022-11-12T01:31:44.518Z,6.89
2022-11-12T01:32:44.493Z,6.86
2022-11-12T01:33:44.494Z,6.86
2022-11-12T01:34:44.454Z,6.86
2022-11-12T01:35:44.463Z,6.83
2022-11-12T01:36:44.444Z,6.81
2022-11-12T01:37:44.443Z,6.79
2022-11-12T01:38:44.414Z,6.78
2022-11-12T01:39:44.405Z,6.78
2022-11-12T01:40:44.386Z,6.79
2022-11-12T01:41:44.385Z,6.76
2022-11-12T01:42:44.369Z,6.73
2022-11-12T01:43:44.386Z,6.75
2022-11-12T01:44:44.343Z,6.76
2022-11-12T01:45:44.355Z,6.76
2022-11-12T01:46:44.324Z,6.76
2022-11-12T01:47:44.335Z,6.76
2022-11-12T01:48:44.325Z,6.75
2022-11-12T01:49:48.741Z,6.73
2022-11-12T01:50:45.285Z,6.72
2022-11-12T01:51:44.284Z,6.73
2022-11-12T01:52:44.271Z,6.73
2022-11-12T01:53:44.295Z,6.69
2022-11-12T01:54:44.275Z,6.68
2022-11-12T01:55:44.221Z,6.68
2022-11-12T01:56:44.233Z,6.69
2022-11-12T01:57:44.232Z,6.65
2022-11-12T01:58:44.214Z,6.68
2022-11-12T01:59:44.205Z,6.65
2022-11-12T02:00:44.247Z,6.64
2022-11-12T02:01:44.175Z,6.63
2022-11-12T02:02:44.156Z,6.63
2022-11-12T02:03:44.176Z,6.61
2022-11-12T02:04:44.140Z,6.60
2022-11-12T02:05:44.136Z,6.60
2022-11-12T02:06:44.199Z,6.61
2022-11-12T02:07:44.112Z,6.63
2022-11-12T02:08:44.085Z,6.61
2022-11-12T02:09:44.097Z,6.61
2022-11-12T02:10:44.086Z,6.58
2022-11-12T02:11:44.064Z,6.57
2022-11-12T02:12:44.055Z,6.57
2022-11-12T02:13:44.058Z,6.55
2022-11-12T02:14:44.036Z,6.54
2022-11-12T02:15:44.027Z,6.51
2022-11-12T02:16:44.005Z,6.51
2022-11-12T02:17:44.037Z,6.51
2022-11-12T02:18:43.983Z,6.50
2022-11-12T02:19:43.962Z,6.50
2022-11-12T02:20:43.973Z,6.48
2022-11-12T02:21:43.966Z,6.48
2022-11-12T02:22:43.941Z,6.45
2022-11-12T02:23:43.936Z,6.45
2022-11-12T02:24:43.926Z,6.43
2022-11-12T02:25:43.906Z,6.43
2022-11-12T02:26:43.927Z,6.43
2022-11-12T02:27:43.897Z,6.40
2022-11-12T02:28:43.878Z,6.42
2022-11-12T02:29:43.873Z,6.42
2022-11-12T02:30:43.883Z,6.40
2022-11-12T02:31:43.857Z,6.40
2022-11-12T02:32:43.864Z,6.39
2022-11-12T02:33:43.846Z,6.39
2022-11-12T02:34:43.828Z,6.40
2022-11-12T02:35:43.817Z,6.43
2022-11-12T02:36:43.807Z,6.42
2022-11-12T02:37:43.777Z,6.43
2022-11-12T02:38:43.754Z,6.40
2022-11-12T02:39:43.757Z,6.40
2022-11-12T02:40:43.755Z,6.39
2022-11-12T02:41:43.748Z,6.39
2022-11-12T02:42:43.728Z,6.36
2022-11-12T02:43:43.738Z,6.38
2022-11-12T02:44:43.727Z,6.36
2022-11-12T02:45:43.683Z,6.36
2022-11-12T02:46:43.688Z,6.36
2022-11-12T02:47:43.708Z,6.33
2022-11-12T02:48:43.644Z,6.32
2022-11-12T02:49:43.661Z,6.33
2022-11-12T02:50:43.634Z,6.30
2022-11-12T02:51:43.603Z,6.30
2022-11-12T02:52:43.611Z,6.27
2022-11-12T02:53:43.585Z,6.27
2022-11-12T02:54:43.581Z,6.28
2022-11-12T02:55:43.583Z,6.27
2022-11-12T02:56:43.561Z,6.27
2022-11-12T02:57:43.544Z,6.27
2022-11-12T02:58:43.557Z,6.27
2022-11-12T02:59:43.546Z,6.27
2022-11-12T03:00:43.594Z,6.27
2022-11-12T03:01:43.505Z,6.25
2022-11-12T03:02:43.499Z,6.25
2022-11-12T03:03:43.495Z,6.25
2022-11-12T03:04:48.316Z,6.25
2022-11-12T03:05:44.528Z,6.24
2022-11-12T03:06:43.503Z,6.24
2022-11-12T03:07:43.436Z,6.21
2022-11-12T03:08:43.435Z,6.24
2022-11-12T03:09:43.417Z,6.19
2022-11-12T03:10:43.475Z,6.19
2022-11-12T03:11:43.417Z,6.20
2022-11-12T03:12:43.406Z,6.19
2022-11-12T03:13:43.376Z,6.17
2022-11-12T03:14:43.369Z,6.19
2022-11-12T03:15:43.359Z,6.19
2022-11-12T03:16:43.366Z,6.19
2022-11-12T03:17:43.327Z,6.19
2022-11-12T03:18:43.327Z,6.16
2022-11-12T03:19:43.317Z,6.14
2022-11-12T03:20:43.304Z,6.14
2022-11-12T03:21:43.305Z,6.14
2022-11-12T03:22:43.285Z,6.14
2022-11-12T03:23:43.274Z,6.16
2022-11-12T03:24:43.269Z,6.14
2022-11-12T03:25:43.250Z,6.13
2022-11-12T03:26:43.241Z,6.11
2022-11-12T03:27:43.227Z,6.10
2022-11-12T03:28:43.238Z,6.11
2022-11-12T03:29:43.198Z,6.10
2022-11-12T03:30:43.218Z,6.10
2022-11-12T03:31:43.188Z,6.11
2022-11-12T03:32:43.177Z,6.08
2022-11-12T03:33:43.179Z,6.08
2022-11-12T03:34:43.175Z,6.08
2022-11-12T03:35:43.141Z,6.05
2022-11-12T03:36:43.168Z,6.05
2022-11-12T03:37:43.140Z,6.06
2022-11-12T03:38:43.127Z,6.06
2022-11-12T03:39:43.147Z,6.05
2022-11-12T03:40:43.106Z,6.05
2022-11-12T03:41:43.109Z,6.03
2022-11-12T03:42:43.070Z,6.02
2022-11-12T03:43:43.050Z,6.02
2022-11-12T03:44:43.051Z,6.01
2022-11-12T03:45:43.037Z,6.01
2022-11-12T03:46:44.336Z,6.01
2022-11-12T03:47:43.031Z,6.01
2022-11-12T03:48:43.010Z,6.01
2022-11-12T03:49:42.989Z,6.01
2022-11-12T03:50:42.988Z,5.99
2022-11-12T03:51:42.973Z,5.98
2022-11-12T03:52:42.980Z,5.96
2022-11-12T03:53:42.949Z,5.96
2022-11-12T03:54:42.948Z,5.96
2022-11-12T03:55:42.931Z,5.93
2022-11-12T03:56:42.940Z,5.93
2022-11-12T03:57:42.909Z,5.90
2022-11-12T03:58:42.900Z,5.88
2022-11-12T03:59:42.890Z,5.85
2022-11-12T04:00:42.883Z,5.84
2022-11-12T04:01:42.863Z,5.81
2022-11-12T04:02:42.882Z,5.80
2022-11-12T04:03:42.845Z,5.81
2022-11-12T04:04:42.840Z,5.78
2022-11-12T04:05:42.822Z,5.78
2022-11-12T04:06:42.854Z,5.77
2022-11-12T04:07:42.802Z,5.77
2022-11-12T04:08:42.820Z,5.75
2022-11-12T04:09:42.783Z,5.74
2022-11-12T04:10:42.773Z,5.73
2022-11-12T04:11:42.753Z,5.74
2022-11-12T04:12:42.759Z,5.75
2022-11-12T04:13:42.740Z,5.74
2022-11-12T04:14:42.754Z,5.74
2022-11-12T04:15:42.712Z,5.74
2022-11-12T04:16:42.712Z,5.77
2022-11-12T04:17:42.692Z,5.78
2022-11-12T04:18:42.690Z,5.75
2022-11-12T04:19:42.695Z,5.78
2022-11-12T04:20:42.662Z,5.77
2022-11-12T04:21:42.655Z,5.80
2022-11-12T04:22:42.644Z,5.80
2022-11-12T04:23:42.633Z,5.78
2022-11-12T04:24:42.651Z,5.78
2022-11-12T04:25:42.611Z,5.80
2022-11-12T04:26:42.623Z,5.80
2022-11-12T04:27:42.597Z,5.81
2022-11-12T04:28:42.582Z,5.83
2022-11-12T04:29:42.584Z,5.84
2022-11-12T04:30:42.558Z,5.87
2022-11-12T04:31:42.544Z,5.87
2022-11-12T04:32:42.545Z,5.85
2022-11-12T04:33:42.524Z,5.90
2022-11-12T04:34:42.589Z,5.90
2022-11-12T04:35:42.515Z,5.88
2022-11-12T04:36:42.624Z,5.88
2022-11-12T04:37:42.474Z,5.87
2022-11-12T04:38:42.474Z,5.88
2022-11-12T04:39:42.455Z,5.90
2022-11-12T04:40:42.464Z,5.92
2022-11-12T04:41:42.436Z,5.93
2022-11-12T04:42:42.425Z,5.93
2022-11-12T04:43:42.424Z,5.93
2022-11-12T04:44:42.418Z,5.93
2022-11-12T04:45:42.415Z,5.95
2022-11-12T04:46:42.393Z,5.93
2022-11-12T04:47:42.375Z,5.93
2022-11-12T04:48:42.365Z,5.95
2022-11-12T04:49:42.355Z,5.95
2022-11-12T04:50:42.385Z,5.95
2022-11-12T04:51:42.373Z,5.95
2022-11-12T04:52:42.315Z,5.95
2022-11-12T04:53:42.315Z,5.96
2022-11-12T04:54:42.306Z,5.96
2022-11-12T04:55:42.294Z,5.96
2022-11-12T04:56:42.277Z,5.96
2022-11-12T04:57:42.288Z,5.96
2022-11-12T04:58:42.268Z,5.96
2022-11-12T04:59:42.246Z,5.98
2022-11-12T05:00:42.256Z,5.96
2022-11-12T05:01:42.260Z,5.96
2022-11-12T05:02:42.216Z,5.98
2022-11-12T05:03:42.224Z,5.99
2022-11-12T05:04:42.199Z,5.99
2022-11-12T05:05:42.192Z,5.98
2022-11-12T05:06:42.216Z,5.99
2022-11-12T05:07:42.165Z,5.98
2022-11-12T05:08:42.168Z,5.98
2022-11-12T05:09:42.137Z,5.99
2022-11-12T05:10:42.132Z,5.99
2022-11-12T05:11:42.116Z,5.98
2022-11-12T05:12:42.103Z,5.98
2022-11-12T05:13:42.096Z,5.98
2022-11-12T05:14:42.105Z,5.99
2022-11-12T05:15:42.076Z,5.98
2022-11-12T05:16:42.056Z,6.01
2022-11-12T05:17:42.057Z,6.01
2022-11-12T05:18:42.038Z,6.02
2022-11-12T05:19:42.046Z,6.03
2022-11-12T05:20:42.037Z,6.02
2022-11-12T05:21:43.694Z,6.03
2022-11-12T05:22:47.845Z,6.03
2022-11-12T05:23:42.997Z,6.02
2022-11-12T05:24:42.865Z,6.01
2022-11-12T05:25:41.987Z,6.01
2022-11-12T05:26:41.978Z,6.03
2022-11-12T05:27:41.947Z,6.02
2022-11-12T05:28:41.930Z,6.03
2022-11-12T05:29:41.937Z,6.03
2022-11-12T05:30:41.928Z,6.02
2022-11-12T05:31:41.906Z,6.02
2022-11-12T05:32:41.907Z,5.98
2022-11-12T05:33:41.886Z,5.98
2022-11-12T05:34:41.869Z,5.96
2022-11-12T05:35:41.890Z,5.98
2022-11-12T05:36:41.849Z,5.96
2022-11-12T05:37:41.856Z,5.93
2022-11-12T05:38:41.828Z,5.93
2022-11-12T05:39:41.821Z,5.93
2022-11-12T05:40:41.829Z,5.93
2022-11-12T05:42:10.867Z,5.93
2022-11-12T05:42:42.780Z,5.93
2022-11-12T05:43:41.777Z,5.90
2022-11-12T05:44:41.790Z,5.90
2022-11-12T05:45:41.759Z,5.90
2022-11-12T05:46:41.754Z,5.90
2022-11-12T05:47:41.761Z,5.90
2022-11-12T05:48:41.719Z,5.90
2022-11-12T05:49:41.718Z,5.90
2022-11-12T05:51:06.324Z,5.90
2022-11-12T05:51:42.689Z,5.88
2022-11-12T05:52:41.829Z,5.90
2022-11-12T05:53:41.688Z,5.90
2022-11-12T05:54:41.650Z,5.90
2022-11-12T05:55:41.661Z,5.88
2022-11-12T05:56:41.630Z,5.87
2022-11-12T05:57:41.631Z,5.85
2022-11-12T05:58:41.631Z,5.87
2022-11-12T05:59:41.607Z,5.87
2022-11-12T06:00:41.591Z,5.85
2022-11-12T06:01:41.591Z,5.84
2022-11-12T06:02:43.021Z,5.83
2022-11-12T06:03:41.591Z,5.84
2022-11-12T06:04:41.550Z,5.83
2022-11-12T06:05:41.570Z,5.84
2022-11-12T06:06:41.574Z,5.84
2022-11-12T06:07:41.560Z,5.84
2022-11-12T06:08:41.510Z,5.83
2022-11-12T06:09:41.502Z,5.84
2022-11-12T06:10:41.489Z,5.84
2022-11-12T06:11:41.479Z,5.83
2022-11-12T06:12:41.461Z,5.83
2022-11-12T06:13:41.471Z,5.83
2022-11-12T06:14:41.441Z,5.83
2022-11-12T06:15:41.443Z,5.84
2022-11-12T06:16:41.420Z,5.83
2022-11-12T06:17:41.431Z,5.85
2022-11-12T06:18:41.402Z,5.85
2022-11-12T06:19:41.412Z,5.84
2022-11-12T06:20:41.375Z,5.85
2022-11-12T06:21:41.371Z,5.85
2022-11-12T06:22:41.364Z,5.85
2022-11-12T06:23:41.352Z,5.85
2022-11-12T06:24:41.332Z,5.87
2022-11-12T06:25:41.353Z,5.88
2022-11-12T06:26:41.321Z,5.85
2022-11-12T06:27:41.310Z,5.87
2022-11-12T06:28:41.310Z,5.87
2022-11-12T06:29:41.294Z,5.88
2022-11-12T06:30:41.271Z,5.87
2022-11-12T06:31:41.283Z,5.85
2022-11-12T06:32:41.253Z,5.85
2022-11-12T06:33:41.242Z,5.84
2022-11-12T06:34:41.251Z,5.85
2022-11-12T06:35:43.255Z,5.87
2022-11-12T06:36:41.222Z,5.88
2022-11-12T06:37:41.353Z,5.88
2022-11-12T06:38:41.202Z,5.87
2022-11-12T06:39:41.193Z,5.88
2022-11-12T06:40:41.233Z,5.88
2022-11-12T06:41:41.163Z,5.90
2022-11-12T06:42:41.153Z,5.90
2022-11-12T06:43:41.143Z,5.93
2022-11-12T06:44:41.124Z,5.93
2022-11-12T06:45:41.113Z,5.96
2022-11-12T06:46:41.104Z,5.98
2022-11-12T06:47:41.094Z,5.96
2022-11-12T06:48:41.073Z,5.99
2022-11-12T06:49:41.074Z,5.99
2022-11-12T06:50:41.054Z,5.99
2022-11-12T06:51:41.075Z,6.01
2022-11-12T06:52:41.056Z,6.03
2022-11-12T06:53:41.033Z,6.05
2022-11-12T06:54:41.039Z,6.06
2022-11-12T06:55:41.015Z,6.05
2022-11-12T06:56:41.008Z,6.06
2022-11-12T06:57:40.986Z,6.05
2022-11-12T06:58:40.975Z,6.08
2022-11-12T06:59:40.992Z,6.06
2022-11-12T07:00:40.945Z,6.11
2022-11-12T07:01:41.011Z,6.11
2022-11-12T07:02:40.925Z,6.14
2022-11-12T07:03:40.925Z,6.14
2022-11-12T07:04:40.906Z,6.14
2022-11-12T07:05:40.915Z,6.14
2022-11-12T07:06:40.954Z,6.16
2022-11-12T07:07:40.883Z,6.17
2022-11-12T07:08:40.867Z,6.19
2022-11-12T07:09:41.008Z,6.20
2022-11-12T07:10:40.855Z,6.25
2022-11-12T07:11:40.835Z,6.27
2022-11-12T07:12:40.825Z,6.27
2022-11-12T07:13:40.818Z,6.28
2022-11-12T07:14:40.796Z,6.30
2022-11-12T07:15:40.797Z,6.32
2022-11-12T07:16:41.727Z,6.32
2022-11-12T07:17:40.774Z,6.30
2022-11-12T07:18:40.757Z,6.32
2022-11-12T07:19:40.766Z,6.30
2022-11-12T07:20:40.747Z,6.30
2022-11-12T07:21:40.747Z,6.33
2022-11-12T07:22:40.715Z,6.35
2022-11-12T07:23:40.707Z,6.36
2022-11-12T07:24:40.687Z,6.38
2022-11-12T07:25:40.709Z,6.39
2022-11-12T07:26:44.632Z,6.39
2022-11-12T07:27:41.665Z,6.40
2022-11-12T07:28:40.647Z,6.43
2022-11-12T07:29:48.128Z,6.46
2022-11-12T07:30:41.668Z,6.48
2022-11-12T07:31:40.658Z,6.51
2022-11-12T07:32:45.075Z,6.54
2022-11-12T07:33:41.598Z,6.57
2022-11-12T07:34:40.588Z,6.58
2022-11-12T07:35:40.594Z,6.60
2022-11-12T07:36:40.580Z,6.60
2022-11-12T07:37:40.559Z,6.61
2022-11-12T07:38:40.539Z,6.64
2022-11-12T07:39:40.546Z,6.64
2022-11-12T07:40:40.519Z,6.68
2022-11-12T07:41:40.548Z,6.69
2022-11-12T07:42:40.526Z,6.69
2022-11-12T07:43:40.501Z,6.71
2022-11-12T07:44:40.478Z,6.71
2022-11-12T07:45:40.481Z,6.71
2022-11-12T07:46:40.461Z,6.72
2022-11-12T07:47:40.468Z,6.73
2022-11-12T07:48:40.439Z,6.75
2022-11-12T07:49:40.432Z,6.76
2022-11-12T07:50:40.419Z,6.78
2022-11-12T07:51:40.427Z,6.81
2022-11-12T07:52:40.400Z,6.83
2022-11-12T07:53:41.452Z,6.87
2022-11-12T07:54:40.400Z,6.87
2022-11-12T07:55:41.431Z,6.93
2022-11-12T07:56:40.372Z,6.94
2022-11-12T07:57:41.070Z,6.97
2022-11-12T07:58:40.343Z,7.01
2022-11-12T07:59:45.702Z,7.00
2022-11-12T08:00:41.331Z,7.01
2022-11-12T08:01:40.531Z,7.01
2022-11-12T08:02:40.309Z,6.99
2022-11-12T08:03:40.839Z,6.99
2022-11-12T08:04:40.290Z,6.97
2022-11-12T08:05:40.992Z,6.97
2022-11-12T08:06:40.376Z,6.97
2022-11-12T08:07:40.670Z,6.97
2022-11-12T08:08:40.251Z,6.99
2022-11-12T08:09:40.511Z,6.97
2022-11-12T08:10:40.219Z,6.97
2022-11-12T08:11:40.210Z,6.97
2022-11-12T08:12:40.191Z,6.97
2022-11-12T08:13:40.186Z,6.99
2022-11-12T08:14:40.155Z,6.99
2022-11-12T08:15:40.152Z,7.00
2022-11-12T08:16:40.153Z,7.00
2022-11-12T08:17:40.133Z,7.01
2022-11-12T08:18:40.120Z,7.04
2022-11-12T08:19:40.110Z,7.04
2022-11-12T08:20:40.096Z,7.01
2022-11-12T08:21:40.173Z,7.05
2022-11-12T08:22:42.753Z,7.08
2022-11-12T08:23:41.070Z,7.09
2022-11-12T08:24:40.061Z,7.14
2022-11-12T08:25:40.043Z,7.16
2022-11-12T08:26:40.034Z,7.23
2022-11-12T08:27:40.043Z,7.24
2022-11-12T08:28:40.013Z,7.27
2022-11-12T08:29:40.038Z,7.33
2022-11-12T08:30:39.991Z,7.33
2022-11-12T08:31:39.985Z,7.36
2022-11-12T08:32:39.963Z,7.42
2022-11-12T08:33:39.955Z,7.44
2022-11-12T08:34:39.947Z,7.45
2022-11-12T08:35:39.964Z,7.50
2022-11-12T08:36:39.934Z,7.51
2022-11-12T08:37:39.964Z,7.55
2022-11-12T08:38:39.904Z,7.58
2022-11-12T08:39:39.895Z,7.63
2022-11-12T08:40:39.875Z,7.70
2022-11-12T08:41:39.903Z,7.73
2022-11-12T08:42:39.857Z,7.76
2022-11-12T08:43:39.852Z,7.82
2022-11-12T08:44:39.850Z,7.86
2022-11-12T08:45:39.845Z,7.89
2022-11-12T08:46:39.815Z,7.94
2022-11-12T08:47:39.813Z,7.96
2022-11-12T08:48:39.795Z,8.00
2022-11-12T08:49:42.593Z,8.02
2022-11-12T08:50:40.766Z,8.04
2022-11-12T08:51:39.785Z,8.07
2022-11-12T08:52:39.745Z,8.10
2022-11-12T08:53:39.749Z,8.18
2022-11-12T08:54:39.776Z,8.20
2022-11-12T08:55:39.725Z,8.21
2022-11-12T08:56:39.714Z,8.25
2022-11-12T08:57:39.747Z,8.25
2022-11-12T08:58:39.706Z,8.28
2022-11-12T08:59:39.717Z,8.31
2022-11-12T09:00:39.687Z,8.36
2022-11-12T09:01:39.713Z,8.40
2022-11-12T09:02:39.646Z,8.43
2022-11-12T09:03:39.709Z,8.45
2022-11-12T09:04:39.677Z,8.47
2022-11-12T09:05:39.618Z,8.50
2022-11-12T09:06:39.640Z,8.57
2022-11-12T09:07:55.068Z,8.61
2022-11-12T09:08:40.583Z,8.64
2022-11-12T09:09:39.568Z,8.64
2022-11-12T09:10:39.581Z,8.64
2022-11-12T09:11:39.547Z,8.68
2022-11-12T09:12:39.547Z,8.71
2022-11-12T09:13:39.549Z,8.76
2022-11-12T09:14:39.518Z,8.82
2022-11-12T09:15:39.527Z,8.85
2022-11-12T09:16:39.561Z,8.89
2022-11-12T09:17:39.488Z,8.93
2022-11-12T09:18:39.479Z,8.97
2022-11-12T09:19:42.963Z,8.97
2022-11-12T09:20:39.480Z,9.00
2022-11-12T09:21:39.438Z,9.01
2022-11-12T09:22:39.436Z,9.08
2022-11-12T09:23:39.442Z,9.10
2022-11-12T09:24:40.422Z,9.10
2022-11-12T09:25:39.409Z,9.12
2022-11-12T09:26:40.389Z,9.10
2022-11-12T09:27:42.074Z,9.10
2022-11-12T09:28:41.569Z,9.10
2022-11-12T09:29:39.380Z,9.13
2022-11-12T09:30:40.370Z,9.13
2022-11-12T09:31:39.348Z,9.06
2022-11-12T09:32:40.050Z,9.08
2022-11-12T09:33:39.787Z,9.10
2022-11-12T09:34:39.643Z,9.10
2022-11-12T09:35:39.329Z,9.13
2022-11-12T09:36:40.065Z,9.12
2022-11-12T09:37:39.278Z,9.13
2022-11-12T09:38:39.282Z,9.13
2022-11-12T09:39:39.252Z,9.13
2022-11-12T09:40:39.259Z,9.13
2022-11-12T09:41:39.221Z,9.15
2022-11-12T09:42:39.220Z,9.16
2022-11-12T09:43:39.223Z,9.19
2022-11-12T09:44:39.198Z,9.24
2022-11-12T09:45:39.181Z,9.26
2022-11-12T09:46:39.192Z,9.30
2022-11-12T09:47:39.162Z,9.31
2022-11-12T09:48:39.176Z,9.35
2022-11-12T09:49:39.151Z,9.40
2022-11-12T09:50:39.143Z,9.41
2022-11-12T09:51:39.112Z,9.42
2022-11-12T09:52:39.131Z,9.45
2022-11-12T09:53:43.969Z,9.49
2022-11-12T09:54:40.097Z,9.53
2022-11-12T09:55:39.073Z,9.56
2022-11-12T09:56:39.083Z,9.62
2022-11-12T09:57:39.072Z,9.67
2022-11-12T09:58:39.057Z,9.70
2022-11-12T09:59:39.033Z,9.73
2022-11-12T10:00:42.471Z,9.78
2022-11-12T10:01:40.109Z,9.81
2022-11-12T10:02:39.012Z,9.85
2022-11-12T10:03:38.993Z,9.89
2022-11-12T10:04:38.991Z,9.93
2022-11-12T10:05:38.964Z,9.96
2022-11-12T10:06:39.028Z,9.99
2022-11-12T10:07:38.944Z,10.04
2022-11-12T10:08:38.950Z,10.11
2022-11-12T10:09:38.923Z,10.16
2022-11-12T10:10:38.925Z,10.24
2022-11-12T10:11:38.914Z,10.28
2022-11-12T10:12:38.895Z,10.31
2022-11-12T10:13:38.884Z,10.38
2022-11-12T10:14:38.885Z,10.43
2022-11-12T10:15:38.876Z,10.47
2022-11-12T10:16:38.873Z,10.51
2022-11-12T10:17:38.855Z,10.58
2022-11-12T10:18:38.835Z,10.65
2022-11-12T10:19:38.846Z,10.72
2022-11-12T10:20:39.031Z,10.80
2022-11-12T10:21:38.815Z,10.86
2022-11-12T10:22:38.789Z,10.90
2022-11-12T10:23:38.787Z,10.98
2022-11-12T10:24:38.776Z,11.03
2022-11-12T10:25:38.757Z,11.09
2022-11-12T10:26:38.767Z,11.13
2022-11-12T10:27:38.754Z,11.17
2022-11-12T10:28:39.392Z,11.23
2022-11-12T10:29:38.737Z,11.27
2022-11-12T10:30:38.707Z,11.36
2022-11-12T10:31:38.686Z,11.41
2022-11-12T10:32:38.736Z,11.48
2022-11-12T10:33:38.668Z,11.53
2022-11-12T10:34:38.659Z,11.62
2022-11-12T10:35:38.638Z,11.66
2022-11-12T10:36:38.638Z,11.74
2022-11-12T10:37:38.619Z,11.81
2022-11-12T10:38:38.638Z,11.88
2022-11-12T10:39:38.598Z,11.97
2022-11-12T10:40:38.618Z,12.01
2022-11-12T10:41:38.579Z,12.05
2022-11-12T10:42:38.570Z,12.13
2022-11-12T10:43:38.550Z,12.19
2022-11-12T10:44:38.550Z,12.25
2022-11-12T10:45:38.549Z,12.29
2022-11-12T10:46:38.530Z,12.30
2022-11-12T10:47:38.511Z,12.31
2022-11-12T10:48:38.501Z,12.36
2022-11-12T10:49:38.490Z,12.37
2022-11-12T10:50:38.513Z,12.38
2022-11-12T10:51:38.491Z,12.43
2022-11-12T10:52:38.471Z,12.46
2022-11-12T10:53:38.440Z,12.51
2022-11-12T10:54:38.473Z,12.52
2022-11-12T10:55:38.444Z,12.58
2022-11-12T10:56:38.421Z,12.63
2022-11-12T10:57:38.430Z,12.73
2022-11-12T10:58:38.409Z,12.77
2022-11-12T10:59:38.392Z,12.87
2022-11-12T11:00:38.392Z,12.92
2022-11-12T11:01:42.999Z,12.98
2022-11-12T11:02:39.354Z,13.04
2022-11-12T11:03:38.332Z,13.10
2022-11-12T11:04:38.341Z,13.19
2022-11-12T11:05:38.324Z,13.24
2022-11-12T11:06:38.381Z,13.27
2022-11-12T11:07:38.293Z,13.35
2022-11-12T11:08:38.627Z,13.43
2022-11-12T11:09:38.274Z,13.48
2022-11-12T11:10:38.291Z,13.53
2022-11-12T11:11:38.275Z,13.55
2022-11-12T11:12:38.255Z,13.61
2022-11-12T11:13:38.246Z,13.65
2022-11-12T11:14:38.224Z,13.69
2022-11-12T11:15:38.212Z,13.73
2022-11-12T11:16:38.216Z,13.80
2022-11-12T11:17:38.185Z,13.84
2022-11-12T11:18:38.185Z,13.90
2022-11-12T11:19:38.166Z,13.94
2022-11-12T11:20:38.185Z,13.99
2022-11-12T11:21:42.035Z,14.06
2022-11-12T11:22:38.155Z,14.16
2022-11-12T11:23:38.124Z,14.27
2022-11-12T11:24:38.127Z,14.38
2022-11-12T11:25:38.096Z,14.53
2022-11-12T11:26:38.113Z,14.63
2022-11-12T11:27:38.078Z,14.67
2022-11-12T11:28:38.069Z,14.74
2022-11-12T11:29:38.087Z,14.87
2022-11-12T11:30:38.167Z,15.01
2022-11-12T11:31:38.071Z,15.18
2022-11-12T11:32:38.117Z,15.38
2022-11-12T11:33:38.069Z,15.66
2022-11-12T11:34:38.079Z,15.96
2022-11-12T11:35:37.999Z,16.41
2022-11-12T11:36:37.988Z,16.96
2022-11-12T11:37:37.969Z,17.51
2022-11-12T11:38:37.960Z,18.31
2022-11-12T11:39:37.946Z,19.09
2022-11-12T11:40:37.962Z,19.90
2022-11-12T11:41:37.928Z,20.66
2022-11-12T11:42:37.919Z,21.30
2022-11-12T11:43:37.925Z,21.79
2022-11-12T11:44:37.898Z,22.38
2022-11-12T11:45:37.900Z,22.91
2022-11-12T11:46:37.879Z,23.37
2022-11-12T11:47:59.400Z,23.75
2022-11-12T11:48:38.854Z,24.23
2022-11-12T11:49:37.851Z,24.71
2022-11-12T11:50:37.842Z,25.02
2022-11-12T11:51:37.831Z,25.12
2022-11-12T11:52:37.815Z,25.09
2022-11-12T11:53:37.799Z,25.26
2022-11-12T11:54:37.784Z,25.39
2022-11-12T11:55:37.772Z,25.45
2022-11-12T11:56:37.785Z,25.57
2022-11-12T11:57:37.753Z,25.64
2022-11-12T11:58:37.745Z,25.64
2022-11-12T11:59:37.734Z,25.53
2022-11-12T12:00:37.730Z,25.53
2022-11-12T12:01:37.735Z,25.35
2022-11-12T12:02:37.702Z,24.63
2022-11-12T12:03:37.715Z,24.51
2022-11-12T12:04:37.676Z,24.34
2022-11-12T12:05:37.667Z,24.36
2022-11-12T12:06:37.694Z,24.46
2022-11-12T12:07:37.645Z,24.48
2022-11-12T12:08:37.656Z,24.48
2022-11-12T12:09:37.626Z,24.49
2022-11-12T12:11:01.360Z,24.26
2022-11-12T12:11:38.598Z,23.99
2022-11-12T12:12:37.596Z,24.11
2022-11-12T12:13:37.609Z,24.15
2022-11-12T12:14:37.569Z,24.02
2022-11-12T12:15:37.560Z,24.12
2022-11-12T12:16:37.565Z,24.37
2022-11-12T12:17:37.532Z,24.53
2022-11-12T12:18:37.530Z,24.74
2022-11-12T12:19:37.531Z,24.89
2022-11-12T12:20:37.510Z,25.01
2022-11-12T12:21:37.491Z,25.17
2022-11-12T12:22:37.485Z,25.26
2022-11-12T12:23:37.473Z,25.30
2022-11-12T12:24:37.482Z,25.34
2022-11-12T12:25:37.453Z,25.34
2022-11-12T12:26:37.465Z,25.46
2022-11-12T12:27:37.424Z,25.56
2022-11-12T12:28:37.423Z,25.57
2022-11-12T12:29:37.404Z,25.61
2022-11-12T12:30:37.395Z,25.74
2022-11-12T12:31:37.405Z,25.75
2022-11-12T12:32:37.387Z,25.76
2022-11-12T12:33:37.363Z,25.83
2022-11-12T12:34:37.364Z,26.04
2022-11-12T12:35:37.353Z,26.11
2022-11-12T12:36:37.370Z,25.98
2022-11-12T12:37:37.317Z,26.08
2022-11-12T12:38:37.317Z,26.12
2022-11-12T12:39:37.347Z,26.28
2022-11-12T12:40:37.302Z,26.32
2022-11-12T12:41:37.371Z,26.39
2022-11-12T12:42:37.283Z,26.51
2022-11-12T12:43:37.288Z,26.65
2022-11-12T12:44:37.259Z,26.79
2022-11-12T12:45:37.260Z,26.84
2022-11-12T12:46:37.245Z,26.75
2022-11-12T12:47:37.230Z,26.66
2022-11-12T12:48:37.263Z,26.69
2022-11-12T12:49:37.211Z,26.75
2022-11-12T12:50:37.232Z,26.69
2022-11-12T12:51:37.191Z,26.56
2022-11-12T12:52:37.172Z,26.31
2022-11-12T12:53:37.175Z,26.09
2022-11-12T12:54:37.164Z,25.83
2022-11-12T12:55:37.164Z,25.45
2022-11-12T12:56:37.143Z,25.11
2022-11-12T12:57:37.202Z,24.84
2022-11-12T12:58:37.114Z,24.70
2022-11-12T12:59:37.095Z,24.53
2022-11-12T13:00:37.142Z,24.52
2022-11-12T13:01:37.086Z,24.53
2022-11-12T13:02:37.078Z,24.46
2022-11-12T13:03:37.047Z,24.34
2022-11-12T13:04:37.048Z,24.24
2022-11-12T13:05:37.027Z,24.31
2022-11-12T13:06:37.104Z,24.42
2022-11-12T13:07:37.020Z,24.44
2022-11-12T13:08:37.021Z,24.51
2022-11-12T13:09:36.988Z,24.59
2022-11-12T13:10:37.022Z,24.74
2022-11-12T13:11:36.983Z,24.90
2022-11-12T13:12:36.980Z,24.97